Time;durP1;ratioP1;P1;durP2;ratioP2;P2;SDS_P1;SDS_P2;PMS_P1;PMS_P2;Temp;Humidity;BMP_temperature;BMP_pressure;BME280_temperature;BME280_humidity;BME280_pressure;Samples;Min_cycle;Max_cycle;Signal;HPM_P1;HPM_P2
2023/06/25 00:01:08;;;;;;;2.50;2.30;;;;;;;23.77;55.48;101113.28;4511641;28;20112;-65
2023/06/25 00:03:18;;;;;;;2.47;2.20;;;;;;;23.79;55.67;101116.63;4510447;28;20046;-65
2023/06/25 00:05:29;;;;;;;2.63;2.40;;;;;;;23.78;55.55;101112.09;4508955;28;20038;-65
2023/06/25 00:07:40;;;;;;;2.78;2.58;;;;;;;23.81;55.57;101113.38;4510531;28;20040;-65
2023/06/25 00:09:55;;;;;;;2.45;2.25;;;;;;;23.80;55.17;101118.28;4508051;28;20038;-64
2023/06/25 00:12:06;;;;;;;2.70;2.50;;;;;;;23.80;55.28;101112.53;4515492;28;20036;-65
2023/06/25 00:14:16;;;;;;;3.17;2.70;;;;;;;23.78;55.25;101102.59;4509551;28;20053;-65
2023/06/25 00:16:29;;;;;;;2.95;2.65;;;;;;;23.80;55.42;101112.53;4509626;28;20121;-64
2023/06/25 00:18:39;;;;;;;2.60;2.40;;;;;;;23.65;55.33;101075.97;4512318;28;20668;-65
2023/06/25 00:20:50;;;;;;;2.60;2.40;;;;;;;23.80;55.53;101103.88;4510230;28;20614;-65
2023/06/25 00:23:00;;;;;;;2.70;2.50;;;;;;;23.79;55.61;101107.16;4511309;28;20037;-65
2023/06/25 00:25:15;;;;;;;2.80;2.28;;;;;;;23.79;55.46;101098.50;4510012;28;20156;-65
2023/06/25 00:27:25;;;;;;;2.55;2.35;;;;;;;23.79;55.17;101099.34;4510284;28;20029;-65
2023/06/25 00:29:35;;;;;;;2.85;2.65;;;;;;;23.78;55.08;101094.81;4509123;28;20035;-65
2023/06/25 00:31:46;;;;;;;2.42;2.22;;;;;;;23.79;55.24;101098.50;4506596;28;20068;-65
2023/06/25 00:33:56;;;;;;;2.50;2.30;;;;;;;23.72;55.03;101081.91;4515430;28;20539;-65
2023/06/25 00:36:08;;;;;;;2.47;2.28;;;;;;;23.80;55.12;101094.41;4525206;28;20044;-65
2023/06/25 00:38:19;;;;;;;2.72;2.53;;;;;;;23.80;55.17;101095.22;4509499;28;20044;-65
2023/06/25 00:40:30;;;;;;;2.58;2.38;;;;;;;23.78;55.29;101086.16;4509074;28;20033;-65
2023/06/25 00:42:42;;;;;;;2.67;2.40;;;;;;;23.80;55.12;101091.53;4516739;28;20053;-65
2023/06/25 00:44:53;;;;;;;2.30;2.10;;;;;;;23.79;54.99;101087.81;4509795;28;20040;-65
2023/06/25 00:47:03;;;;;;;2.45;2.25;;;;;;;23.76;54.50;101082.81;4507612;28;20545;-65
2023/06/25 00:49:14;;;;;;;2.47;2.28;;;;;;;23.76;55.13;101077.03;4508922;28;20078;-65
2023/06/25 00:51:27;;;;;;;2.40;2.20;;;;;;;23.80;55.24;101083.69;4507934;28;20065;-65
2023/06/25 00:53:38;;;;;;;2.42;2.22;;;;;;;23.80;55.17;101085.78;4508670;28;20025;-65
2023/06/25 00:55:50;;;;;;;2.30;2.10;;;;;;;23.77;54.76;101075.81;4512018;28;20061;-65
2023/06/25 00:58:02;;;;;;;2.55;2.35;;;;;;;23.77;54.69;101075.81;4514850;28;20045;-65
2023/06/25 01:00:14;;;;;;;2.40;2.20;;;;;;;23.77;54.77;101072.94;4510285;28;20030;-65
2023/06/25 01:02:32;;;;;;;2.55;2.35;;;;;;;23.76;54.83;101073.31;4511336;28;20108;-65
2023/06/25 01:04:51;;;;;;;2.50;2.30;;;;;;;23.78;54.52;101074.63;4506408;28;20093;-65
2023/06/25 01:07:16;;;;;;;2.50;2.30;;;;;;;23.77;54.68;101072.94;4508445;28;20034;-65
2023/06/25 01:09:27;;;;;;;2.35;2.15;;;;;;;23.77;54.85;101061.41;4508692;28;20021;-65
2023/06/25 01:11:38;;;;;;;2.40;2.20;;;;;;;23.77;54.88;101070.03;4502407;28;20032;-65
2023/06/25 01:13:48;;;;;;;2.60;2.40;;;;;;;23.74;54.66;101062.16;4511129;28;20029;-65
2023/06/25 01:15:59;;;;;;;2.70;2.47;;;;;;;23.77;54.58;101067.16;4507247;28;20029;-65
2023/06/25 01:18:14;;;;;;;2.45;2.05;;;;;;;23.76;54.39;101071.28;4510105;28;20041;-65
2023/06/25 01:20:27;;;;;;;2.60;2.40;;;;;;;23.78;54.68;101068.84;4523982;28;21463;-65
2023/06/25 01:22:40;;;;;;;2.10;1.90;;;;;;;23.77;54.66;101067.16;4510126;28;20022;-65
2023/06/25 01:24:51;;;;;;;2.47;2.28;;;;;;;23.78;54.65;101074.63;4508060;28;20675;-65
2023/06/25 01:27:04;;;;;;;2.50;2.30;;;;;;;23.77;54.30;101075.81;4514603;28;20099;-65
2023/06/25 01:29:14;;;;;;;2.50;2.30;;;;;;;23.74;54.17;101061.34;4512280;28;20680;-65
2023/06/25 01:31:25;;;;;;;2.60;2.40;;;;;;;23.78;53.89;101070.88;4510264;28;20368;-65
2023/06/25 01:33:36;;;;;;;2.20;2.00;;;;;;;23.69;54.24;101053.81;4508246;28;20054;-65
2023/06/25 01:35:47;;;;;;;2.40;2.15;;;;;;;23.75;54.59;101063.84;4510191;28;20052;-65
2023/06/25 01:37:58;;;;;;;2.38;2.17;;;;;;;23.77;54.43;101067.16;4510551;28;20068;-65
2023/06/25 01:40:09;;;;;;;2.28;2.08;;;;;;;23.74;54.14;101065.03;4509930;28;20574;-65
2023/06/25 01:42:20;;;;;;;2.40;2.20;;;;;;;23.77;54.26;101061.41;4508842;28;20491;-65
2023/06/25 01:44:32;;;;;;;2.42;2.22;;;;;;;23.75;53.69;101057.25;4510158;28;20053;-65
2023/06/25 01:46:42;;;;;;;2.35;2.15;;;;;;;23.76;54.06;101053.97;4509381;28;20477;-64
2023/06/25 01:48:52;;;;;;;2.50;2.30;;;;;;;23.74;53.93;101059.28;4509573;28;20051;-65
2023/06/25 01:51:03;;;;;;;2.35;2.15;;;;;;;23.76;53.55;101056.84;4509514;28;20045;-65
2023/06/25 01:53:13;;;;;;;2.60;2.40;;;;;;;23.76;53.87;101053.97;4509681;28;20077;-65
2023/06/25 01:55:24;;;;;;;2.60;2.10;;;;;;;23.74;53.78;101044.88;4515719;28;20017;-65
2023/06/25 01:57:34;;;;;;;2.70;2.50;;;;;;;23.71;53.07;101048.50;4514008;28;20038;-65
2023/06/25 01:59:45;;;;;;;2.45;2.25;;;;;;;23.74;53.59;101052.69;4524554;28;20028;-65
2023/06/25 02:01:56;;;;;;;2.47;2.28;;;;;;;23.73;53.85;101054.72;4522184;28;20073;-65
2023/06/25 02:04:08;;;;;;;2.42;2.22;;;;;;;23.73;53.54;101040.31;4523267;28;20141;-65
2023/06/25 02:06:19;;;;;;;2.17;1.98;;;;;;;23.74;53.60;101044.88;4510836;28;20128;-65
2023/06/25 02:08:30;;;;;;;2.42;2.22;;;;;;;23.76;53.74;101047.38;4510323;28;20155;-65
2023/06/25 02:10:40;;;;;;;2.03;1.83;;;;;;;23.74;53.38;101039.09;4516706;28;20896;-65
2023/06/25 02:12:52;;;;;;;2.38;2.17;;;;;;;23.75;53.50;101049.44;4495998;28;20034;-65
2023/06/25 02:15:03;;;;;;;2.38;2.17;;;;;;;23.75;53.42;101049.44;4509033;28;20042;-65
2023/06/25 02:17:14;;;;;;;2.35;2.15;;;;;;;23.75;53.41;101045.72;4511362;28;20036;-65
2023/06/25 02:19:24;;;;;;;2.40;2.20;;;;;;;23.75;53.12;101052.31;4511915;28;20036;-65
2023/06/25 02:21:35;;;;;;;2.33;2.13;;;;;;;23.74;53.30;101047.75;4515165;28;20044;-65
2023/06/25 02:23:45;;;;;;;2.65;2.25;;;;;;;23.70;52.90;101041.09;4512328;28;20927;-65
2023/06/25 02:25:55;;;;;;;2.33;2.13;;;;;;;23.67;53.43;101027.44;4510931;28;20135;-65
2023/06/25 02:28:06;;;;;;;2.17;1.98;;;;;;;23.71;53.18;101022.56;4512135;28;20129;-65
2023/06/25 02:30:16;;;;;;;2.40;2.20;;;;;;;23.69;53.19;101024.97;4512078;28;20041;-65
2023/06/25 02:32:27;;;;;;;2.25;2.05;;;;;;;23.73;53.40;101031.69;4511087;28;20042;-65
2023/06/25 02:34:37;;;;;;;2.20;2.00;;;;;;;23.74;53.18;101023.88;4526978;28;20357;-65
2023/06/25 02:36:50;;;;;;;2.38;2.17;;;;;;;23.72;52.77;101030.03;4512572;28;20116;-65
2023/06/25 02:39:01;;;;;;;2.25;2.00;;;;;;;23.72;53.09;101015.59;4512709;28;20170;-65
2023/06/25 02:41:11;;;;;;;2.17;1.98;;;;;;;23.75;53.43;101019.75;4501058;28;20030;-65
2023/06/25 02:43:22;;;;;;;2.15;1.95;;;;;;;23.74;53.10;101021.81;4512584;28;20632;-65
2023/06/25 02:45:33;;;;;;;2.35;2.15;;;;;;;23.67;53.28;101005.19;4511278;28;20829;-65
2023/06/25 02:47:47;;;;;;;2.40;2.20;;;;;;;23.73;53.15;101013.53;4510803;28;20037;-65
2023/06/25 02:49:58;;;;;;;2.60;2.40;;;;;;;23.62;52.85;100996.03;4510670;28;20034;-65
2023/06/25 02:52:08;;;;;;;2.40;2.20;;;;;;;23.70;53.41;101008.53;4510194;28;20036;-65
2023/06/25 02:54:19;;;;;;;2.30;2.10;;;;;;;23.71;53.49;101008.16;4512040;28;20069;-65
2023/06/25 02:56:29;;;;;;;2.58;2.38;;;;;;;23.72;53.38;101009.00;4512825;28;20458;-64
2023/06/25 02:58:40;;;;;;;2.38;2.17;;;;;;;23.73;53.40;101013.53;4512455;28;20026;-63
2023/06/25 03:00:50;;;;;;;2.03;1.92;;;;;;;23.73;53.31;101007.78;4528733;28;20559;-64
2023/06/25 03:03:01;;;;;;;2.20;2.00;;;;;;;23.63;53.42;100995.66;4510322;28;20048;-64
2023/06/25 03:05:11;;;;;;;2.28;2.08;;;;;;;23.73;53.37;101013.53;4494356;28;20483;-65
2023/06/25 03:07:22;;;;;;;2.38;2.17;;;;;;;23.71;53.39;101005.28;4515349;28;20037;-64
2023/06/25 03:09:34;;;;;;;2.30;2.10;;;;;;;23.73;53.25;101011.50;4509828;28;20043;-65
2023/06/25 03:11:45;;;;;;;2.38;2.17;;;;;;;23.72;53.24;101006.13;4526440;28;20420;-64
2023/06/25 03:13:55;;;;;;;2.30;2.10;;;;;;;23.68;53.39;101006.03;4509874;28;20122;-64
2023/06/25 03:16:06;;;;;;;2.35;2.00;;;;;;;23.69;53.21;101001.94;4511368;28;20034;-64
2023/06/25 03:18:17;;;;;;;2.33;2.10;;;;;;;23.72;53.21;101014.75;4516412;28;20107;-65
2023/06/25 03:20:28;;;;;;;2.30;2.10;;;;;;;23.70;53.18;101015.16;4515683;28;20038;-64
2023/06/25 03:22:39;;;;;;;2.05;1.85;;;;;;;23.70;52.63;101015.16;4516287;28;20025;-66
2023/06/25 03:24:50;;;;;;;2.30;2.10;;;;;;;23.72;53.13;101021.38;4526555;28;20044;-65
2023/06/25 03:27:00;;;;;;;1.83;1.73;;;;;;;23.69;53.10;101007.69;4510524;28;20637;-65
2023/06/25 03:29:12;;;;;;;2.00;1.90;;;;;;;23.71;52.68;101013.91;4511204;28;20041;-65
2023/06/25 03:31:23;;;;;;;2.40;2.17;;;;;;;23.72;52.79;101023.41;4508213;28;20034;-65
2023/06/25 03:33:37;;;;;;;2.33;2.13;;;;;;;23.71;53.15;101013.91;4509167;28;20668;-65
2023/06/25 03:35:48;;;;;;;2.20;2.00;;;;;;;23.72;53.08;101017.66;4512406;28;20025;-65
2023/06/25 03:37:58;;;;;;;2.50;2.25;;;;;;;23.64;52.92;101008.00;4511783;28;21252;-68
2023/06/25 03:40:09;;;;;;;2.30;2.10;;;;;;;23.70;53.16;101014.28;4508139;28;20127;-65
2023/06/25 03:42:20;;;;;;;2.20;2.00;;;;;;;23.69;52.55;101001.09;4508894;28;21217;-65
2023/06/25 03:44:31;;;;;;;2.05;1.85;;;;;;;23.69;53.22;101001.94;4515480;28;20131;-65
2023/06/25 03:46:41;;;;;;;2.10;1.90;;;;;;;23.64;53.33;100993.59;4509070;28;20124;-65
2023/06/25 03:48:51;;;;;;;2.28;2.00;;;;;;;23.69;53.27;101004.00;4516332;28;20532;-65
2023/06/25 03:51:02;;;;;;;2.10;1.92;;;;;;;23.66;53.51;101002.69;4511835;28;20037;-66
2023/06/25 03:53:13;;;;;;;2.60;2.10;;;;;;;23.66;53.42;100999.81;4506198;28;20048;-65
2023/06/25 03:55:24;;;;;;;2.22;2.00;;;;;;;23.69;53.56;100989.59;4514910;28;20040;-65
2023/06/25 03:57:34;;;;;;;2.25;1.92;;;;;;;23.70;53.50;100997.84;4499274;28;20029;-65
2023/06/25 03:59:45;;;;;;;2.30;1.90;;;;;;;23.67;53.41;100998.59;4511087;28;20540;-65
2023/06/25 04:01:56;;;;;;;2.30;2.10;;;;;;;23.71;53.47;100996.63;4510825;28;20030;-66
2023/06/25 04:04:06;;;;;;;2.00;1.90;;;;;;;23.70;53.47;100992.09;4526784;28;20104;-66
2023/06/25 04:06:16;;;;;;;2.10;1.90;;;;;;;23.64;53.42;100984.97;4511857;28;20122;-65
2023/06/25 04:08:28;;;;;;;2.40;2.17;;;;;;;23.69;53.43;100996.16;4515947;28;20621;-65
2023/06/25 04:10:39;;;;;;;2.10;1.90;;;;;;;23.70;53.58;100992.09;4516390;28;20037;-65
2023/06/25 04:12:50;;;;;;;2.17;1.98;;;;;;;23.69;53.55;100996.16;4507281;28;20034;-65
2023/06/25 04:15:02;;;;;;;2.20;2.00;;;;;;;23.70;53.56;100989.19;4509729;28;20036;-65
2023/06/25 04:17:13;;;;;;;2.28;2.08;;;;;;;23.64;53.68;100982.06;4510118;28;20581;-65
2023/06/25 04:19:24;;;;;;;2.88;2.08;;;;;;;23.69;53.62;100987.50;4512466;28;20033;-66
2023/06/25 04:21:35;;;;;;;2.22;2.00;;;;;;;23.67;54.05;100982.13;4514094;28;20132;-65
2023/06/25 04:23:46;;;;;;;2.60;2.15;;;;;;;23.68;54.32;100982.97;4515681;28;20033;-66
2023/06/25 04:25:57;;;;;;;2.28;2.08;;;;;;;23.67;54.35;100975.56;4516786;28;20038;-65
2023/06/25 04:28:16;;;;;;;2.00;1.90;;;;;;;23.70;54.24;100983.44;4514941;28;20156;-65
2023/06/25 04:30:26;;;;;;;2.30;2.10;;;;;;;23.67;54.36;100976.38;4508829;28;20042;-65
2023/06/25 04:32:37;;;;;;;2.17;1.98;;;;;;;23.69;54.43;100978.06;4514696;28;20033;-65
2023/06/25 04:34:48;;;;;;;2.33;2.00;;;;;;;23.67;54.93;100976.38;4514848;28;20034;-66
2023/06/25 04:37:05;;;;;;;2.20;2.00;;;;;;;23.66;54.75;100976.75;4518273;28;20041;-65
2023/06/25 04:39:15;;;;;;;2.17;1.80;;;;;;;23.67;54.90;100976.38;4505749;28;20022;-65
2023/06/25 04:41:26;;;;;;;2.47;1.88;;;;;;;23.64;54.77;100965.59;4509028;28;20033;-67
2023/06/25 04:43:38;;;;;;;2.08;1.88;;;;;;;23.69;55.32;100978.88;4516709;28;21054;-65
2023/06/25 04:45:49;;;;;;;2.17;1.98;;;;;;;23.67;55.13;100981.31;4504302;28;20081;-65
2023/06/25 04:48:00;;;;;;;2.42;1.90;;;;;;;23.68;55.27;100982.97;4499877;28;21028;-65
2023/06/25 04:50:11;;;;;;;2.28;2.08;;;;;;;23.67;55.15;100981.31;4501080;28;20128;-65
2023/06/25 04:52:21;;;;;;;2.13;1.92;;;;;;;23.67;55.56;100979.25;4509176;28;20134;-65
2023/06/25 04:54:32;;;;;;;2.22;1.95;;;;;;;23.65;55.42;100977.97;4509043;28;20220;-65
2023/06/25 04:56:42;;;;;;;2.20;2.00;;;;;;;23.52;54.98;100951.34;4508067;28;20037;-65
2023/06/25 04:58:53;;;;;;;2.25;1.77;;;;;;;23.66;54.96;100976.75;4511141;28;20029;-66
2023/06/25 05:01:03;;;;;;;2.20;2.00;;;;;;;23.61;55.29;100968.41;4525010;28;20032;-65
2023/06/25 05:03:14;;;;;;;2.63;2.00;;;;;;;23.64;54.91;100971.38;4510669;28;20026;-66
2023/06/25 05:05:24;;;;;;;2.40;2.20;;;;;;;23.67;54.90;100981.31;4509086;28;20057;-65
2023/06/25 05:07:34;;;;;;;2.30;2.10;;;;;;;23.67;54.38;100980.47;4507471;28;20046;-65
2023/06/25 05:09:45;;;;;;;2.33;2.00;;;;;;;23.66;54.99;100985.38;4510444;28;20066;-65
2023/06/25 05:11:55;;;;;;;2.25;2.05;;;;;;;23.65;54.55;100983.72;4510607;28;20346;-66
2023/06/25 05:14:06;;;;;;;2.47;2.28;;;;;;;23.67;54.74;100980.47;4515265;28;20030;-66
2023/06/25 05:16:16;;;;;;;2.20;2.00;;;;;;;23.56;55.34;100968.72;4510068;28;20148;-66
2023/06/25 05:18:27;;;;;;;2.20;2.00;;;;;;;23.67;55.28;100982.13;4516753;28;20057;-65
2023/06/25 05:20:38;;;;;;;2.42;2.00;;;;;;;23.64;55.64;100970.56;4515263;28;20499;-65
2023/06/25 05:22:48;;;;;;;2.53;2.10;;;;;;;23.66;55.50;100973.88;4509888;28;20120;-65
2023/06/25 05:24:59;;;;;;;2.30;2.10;;;;;;;23.57;55.50;100961.75;4510846;28;20029;-65
2023/06/25 05:27:09;;;;;;;2.17;1.98;;;;;;;23.67;55.75;100986.25;4510723;28;20410;-65
2023/06/25 05:29:19;;;;;;;2.42;2.00;;;;;;;23.68;55.70;100982.97;4515442;28;20036;-66
2023/06/25 05:31:30;;;;;;;1.95;1.75;;;;;;;23.67;55.16;100982.13;4502723;28;20034;-67
2023/06/25 05:33:40;;;;;;;2.40;2.00;;;;;;;23.68;55.47;100988.75;4509577;28;20041;-65
2023/06/25 05:35:51;;;;;;;2.38;2.17;;;;;;;23.61;55.02;100977.88;4508783;28;20047;-65
2023/06/25 05:38:01;;;;;;;2.20;2.00;;;;;;;23.61;55.03;100979.94;4511664;28;20030;-66
2023/06/25 05:40:12;;;;;;;1.98;1.77;;;;;;;23.66;55.29;100985.38;4514966;28;20041;-68
2023/06/25 05:42:23;;;;;;;2.25;2.05;;;;;;;23.59;55.51;100973.72;4511121;28;20033;-64
2023/06/25 05:44:33;;;;;;;2.20;1.95;;;;;;;23.66;55.69;100982.50;4512717;28;20064;-65
2023/06/25 05:46:44;;;;;;;2.17;1.98;;;;;;;23.66;56.35;100981.69;4499347;28;20726;-65
2023/06/25 05:48:54;;;;;;;2.67;2.28;;;;;;;23.64;56.22;100982.06;4512035;28;20177;-65
2023/06/25 05:51:04;;;;;;;2.53;2.05;;;;;;;23.67;56.10;100980.47;4498716;28;20038;-70
2023/06/25 05:53:15;;;;;;;2.30;1.75;;;;;;;23.61;56.71;100962.63;4500754;28;20527;-70
2023/06/25 05:55:25;;;;;;;2.20;2.00;;;;;;;23.64;56.56;100965.59;4509699;28;20042;-70
2023/06/25 05:57:36;;;;;;;2.28;2.08;;;;;;;23.67;56.55;100969.78;4525884;28;20036;-70
2023/06/25 05:59:46;;;;;;;2.10;1.90;;;;;;;23.64;55.74;100970.56;4526545;28;20120;-70
2023/06/25 06:01:57;;;;;;;2.10;1.88;;;;;;;23.63;56.21;100969.72;4515621;28;20143;-70
2023/06/25 06:04:08;;;;;;;2.30;1.90;;;;;;;23.50;56.67;100941.41;4511309;28;20045;-70
2023/06/25 06:06:18;;;;;;;2.22;1.95;;;;;;;23.54;56.38;100953.84;4511448;28;20049;-71
2023/06/25 06:08:29;;;;;;;2.30;2.00;;;;;;;23.56;56.67;100957.19;4511765;28;20022;-72
2023/06/25 06:10:39;;;;;;;2.00;1.80;;;;;;;23.63;57.01;100968.88;4515607;28;20037;-71
2023/06/25 06:12:50;;;;;;;2.22;2.03;;;;;;;23.63;57.69;100971.75;4512510;28;20057;-71
2023/06/25 06:15:00;;;;;;;2.22;2.03;;;;;;;23.64;57.55;100976.31;4514500;28;20145;-71
2023/06/25 06:17:10;;;;;;;2.65;2.00;;;;;;;23.64;57.25;100979.19;4527217;28;20110;-72
2023/06/25 06:19:21;;;;;;;2.17;1.98;;;;;;;23.66;57.07;100975.94;4505779;28;20277;-71
2023/06/25 06:21:31;;;;;;;1.80;1.70;;;;;;;23.50;57.41;100947.16;4511259;28;20071;-70
2023/06/25 06:23:42;;;;;;;2.10;1.90;;;;;;;23.35;57.78;100923.00;4515863;28;20539;-71
2023/06/25 06:25:53;;;;;;;2.10;1.90;;;;;;;23.63;57.57;100977.50;4512667;28;20577;-71
2023/06/25 06:28:03;;;;;;;2.47;1.90;;;;;;;23.63;57.38;100968.06;4512407;28;20565;-70
2023/06/25 06:30:14;;;;;;;2.20;2.00;;;;;;;23.49;57.97;100945.50;4511297;28;20461;-71
2023/06/25 06:32:24;;;;;;;2.20;2.00;;;;;;;23.64;57.83;100970.56;4513064;28;20029;-71
2023/06/25 06:34:35;;;;;;;2.22;1.83;;;;;;;23.64;58.12;100965.59;4516581;28;20029;-70
2023/06/25 06:36:45;;;;;;;2.00;1.90;;;;;;;23.47;57.24;100942.16;4510973;28;20516;-71
2023/06/25 06:38:55;;;;;;;2.25;2.05;;;;;;;23.65;57.44;100966.44;4500440;28;20037;-71
2023/06/25 06:41:06;;;;;;;2.10;1.90;;;;;;;23.49;57.84;100939.75;4499538;28;20066;-71
2023/06/25 06:43:16;;;;;;;2.20;2.00;;;;;;;23.73;57.60;100974.03;4511381;28;20056;-71
2023/06/25 06:45:27;;;;;;;3.15;2.53;;;;;;;23.79;56.92;100960.97;4506054;28;20049;-71
2023/06/25 06:47:37;;;;;;;2.33;2.13;;;;;;;23.67;57.12;100940.13;4509951;28;20034;-72
2023/06/25 06:49:48;;;;;;;2.20;2.00;;;;;;;23.73;57.06;100939.44;4517529;28;20115;-71
2023/06/25 06:51:58;;;;;;;1.75;1.65;;;;;;;23.83;57.28;100953.25;4511598;28;20029;-71
2023/06/25 06:54:09;;;;;;;2.72;2.25;;;;;;;23.87;56.87;100951.25;4509492;28;20232;-67
2023/06/25 06:56:19;;;;;;;2.55;2.30;;;;;;;23.88;56.76;100950.03;4510914;28;20115;-65
2023/06/25 06:58:30;;;;;;;2.10;1.92;;;;;;;23.89;56.91;100950.88;4512976;28;20497;-65
2023/06/25 07:00:40;;;;;;;2.47;2.28;;;;;;;23.92;56.69;100950.94;4500498;28;20030;-65
2023/06/25 07:02:53;;;;;;;2.38;2.17;;;;;;;23.94;56.51;100944.81;4509440;28;20398;-66
2023/06/25 07:05:04;;;;;;;2.30;2.10;;;;;;;23.94;56.78;100959.22;4511059;28;20037;-66
2023/06/25 07:07:14;;;;;;;2.35;2.15;;;;;;;23.91;56.21;100949.28;4509545;28;20414;-62
2023/06/25 07:09:25;;;;;;;1.73;1.63;;;;;;;23.96;56.72;100954.72;4516781;28;20022;-62
2023/06/25 07:11:36;;;;;;;1.63;1.52;;;;;;;23.94;56.56;100947.69;4511837;28;20041;-61
2023/06/25 07:13:47;;;;;;;2.45;1.88;;;;;;;23.97;56.68;100961.38;4500183;28;20054;-63
2023/06/25 07:15:57;;;;;;;1.88;1.75;;;;;;;23.97;56.21;100961.38;4512023;28;20124;-62
2023/06/25 07:18:07;;;;;;;1.98;1.88;;;;;;;23.97;56.32;100961.38;4510983;28;20029;-62
2023/06/25 07:20:18;;;;;;;1.70;1.60;;;;;;;23.96;56.35;100953.91;4511796;28;20087;-62
2023/06/25 07:22:28;;;;;;;1.50;1.40;;;;;;;23.94;56.46;100944.81;4513727;28;20060;-62
2023/06/25 07:24:39;;;;;;;2.10;1.90;;;;;;;23.99;55.99;100954.00;4493448;28;20054;-62
2023/06/25 07:26:49;;;;;;;2.00;1.83;;;;;;;23.97;56.23;100949.84;4510654;28;20041;-62
2023/06/25 07:29:00;;;;;;;2.10;1.90;;;;;;;23.86;56.10;100931.47;4512146;28;20102;-62
2023/06/25 07:31:10;;;;;;;2.25;2.05;;;;;;;23.98;55.88;100958.09;4511706;28;20609;-62
2023/06/25 07:33:21;;;;;;;2.20;2.00;;;;;;;23.98;55.72;100958.09;4510167;28;20063;-62
2023/06/25 07:35:31;;;;;;;2.13;1.90;;;;;;;23.89;56.00;100934.41;4510371;28;20038;-62
2023/06/25 07:37:42;;;;;;;2.40;2.20;;;;;;;23.98;55.66;100952.34;4516277;28;20025;-62
2023/06/25 07:39:52;;;;;;;2.38;2.15;;;;;;;24.00;55.67;100949.91;4497904;28;20045;-62
2023/06/25 07:42:03;;;;;;;2.30;2.10;;;;;;;24.02;55.72;100950.38;4510120;28;20033;-63
2023/06/25 07:44:13;;;;;;;2.20;2.00;;;;;;;23.99;55.82;100944.53;4527820;28;20489;-62
2023/06/25 07:46:24;;;;;;;2.10;1.77;;;;;;;23.88;55.45;100926.16;4511772;28;20283;-62
2023/06/25 07:48:34;;;;;;;2.20;2.00;;;;;;;23.87;55.66;100928.19;4498261;28;20485;-62
2023/06/25 07:50:45;;;;;;;1.92;1.80;;;;;;;23.87;55.43;100928.19;4509104;28;20561;-62
2023/06/25 07:52:55;;;;;;;2.10;1.90;;;;;;;24.04;55.52;100950.00;4510248;28;20026;-62
2023/06/25 07:55:06;;;;;;;2.10;1.90;;;;;;;24.04;55.45;100947.09;4499605;28;20159;-62
2023/06/25 07:57:17;;;;;;;2.13;1.90;;;;;;;24.02;55.70;100947.50;4511802;28;20615;-62
2023/06/25 07:59:27;;;;;;;2.20;2.00;;;;;;;24.00;55.56;100940.41;4510731;28;20044;-62
2023/06/25 08:01:38;;;;;;;2.08;1.90;;;;;;;23.91;55.63;100922.50;4515807;28;20032;-61
2023/06/25 08:03:48;;;;;;;2.10;1.90;;;;;;;24.07;55.45;100950.03;4509990;28;20516;-63
2023/06/25 08:05:59;;;;;;;2.22;2.03;;;;;;;24.11;55.50;100942.28;4509422;28;20029;-60
2023/06/25 08:08:10;;;;;;;2.42;1.92;;;;;;;24.12;55.48;100940.25;4510331;28;20041;-59
2023/06/25 08:10:20;;;;;;;2.38;2.17;;;;;;;24.19;55.24;100946.97;4509608;28;20044;-61
2023/06/25 08:12:31;;;;;;;2.50;1.70;;;;;;;24.19;55.33;100941.22;4509869;28;20066;-60
2023/06/25 08:14:41;;;;;;;1.90;1.80;;;;;;;24.19;55.33;100946.97;4510184;28;20037;-61
2023/06/25 08:16:52;;;;;;;2.25;2.05;;;;;;;24.25;55.37;100945.44;4510275;28;20041;-61
2023/06/25 08:19:03;;;;;;;2.17;1.98;;;;;;;24.29;55.43;100939.75;4509260;28;20160;-61
2023/06/25 08:21:13;;;;;;;2.13;1.90;;;;;;;24.30;55.14;100936.47;4511274;28;20137;-61
2023/06/25 08:23:24;;;;;;;1.90;1.80;;;;;;;24.34;55.32;100940.25;4512775;28;20037;-61
2023/06/25 08:25:34;;;;;;;2.28;1.90;;;;;;;24.34;54.65;100939.44;4515872;28;20063;-61
2023/06/25 08:27:44;;;;;;;1.83;1.70;;;;;;;24.38;55.18;100946.94;4512872;28;20045;-61
2023/06/25 08:29:55;;;;;;;1.70;1.60;;;;;;;24.39;55.10;100945.69;4515346;28;20046;-61
2023/06/25 08:32:06;;;;;;;1.73;1.63;;;;;;;24.42;55.01;100926.78;4510736;28;20033;-62
2023/06/25 08:34:16;;;;;;;2.10;1.90;;;;;;;24.44;55.21;100930.09;4510548;28;20060;-62
2023/06/25 08:36:27;;;;;;;1.90;1.80;;;;;;;24.48;55.18;100936.78;4515524;28;20037;-61
2023/06/25 08:38:37;;;;;;;3.10;1.98;;;;;;;24.55;55.34;100940.63;4509168;28;20044;-61
2023/06/25 08:40:48;;;;;;;8.45;5.22;;;;;;;24.61;55.16;100939.06;4509010;28;20498;-67
2023/06/25 08:42:59;;;;;;;6.20;3.65;;;;;;;24.62;54.57;100932.09;4510523;28;20049;-63
2023/06/25 08:45:13;;;;;;;3.15;2.58;;;;;;;24.66;54.43;100926.38;4510714;28;20413;-62
2023/06/25 08:47:27;;;;;;;5.45;3.97;;;;;;;24.78;54.61;100929.09;4509374;28;20041;-68
2023/06/25 08:49:42;;;;;;;7.90;5.07;;;;;;;24.80;54.56;100929.53;4508162;28;20057;-66
2023/06/25 08:51:59;;;;;;;8.68;4.93;;;;;;;24.83;54.68;100932.47;4510362;28;20029;-65
2023/06/25 08:54:09;;;;;;;16.90;9.40;;;;;;;24.86;54.24;100923.00;4511461;28;20025;-66
2023/06/25 08:56:20;;;;;;;12.93;7.80;;;;;;;24.92;54.35;100927.25;4511151;28;20482;-65
2023/06/25 08:58:31;;;;;;;16.60;10.02;;;;;;;24.89;54.25;100915.66;4510514;28;20030;-62
2023/06/25 09:00:41;;;;;;;17.23;9.82;;;;;;;24.94;53.96;100915.31;4510691;28;21387;-62
2023/06/25 09:02:53;;;;;;;20.48;11.23;;;;;;;24.99;53.65;100912.91;4511141;28;20038;-63
2023/06/25 09:05:12;;;;;;;21.67;12.60;;;;;;;24.97;53.90;100909.56;4508459;28;20046;-66
2023/06/25 09:07:23;;;;;;;22.92;12.90;;;;;;;24.99;54.12;100909.19;4508755;28;20034;-62
2023/06/25 09:09:34;;;;;;;25.23;13.30;;;;;;;25.01;54.05;100916.25;4509271;28;20041;-63
2023/06/25 09:11:44;;;;;;;19.65;11.73;;;;;;;25.02;53.95;100914.22;4512737;28;20095;-67
2023/06/25 09:13:56;;;;;;;22.23;12.05;;;;;;;25.07;53.99;100913.84;4511159;28;20061;-63
2023/06/25 09:16:08;;;;;;;21.35;12.43;;;;;;;25.07;53.95;100913.03;4512056;28;20033;-60
2023/06/25 09:18:21;;;;;;;22.38;12.90;;;;;;;25.08;54.06;100906.03;4528933;28;20037;-61
2023/06/25 09:20:31;;;;;;;23.42;13.48;;;;;;;25.05;53.67;100910.53;4514197;28;20044;-63
2023/06/25 09:22:49;;;;;;;24.95;14.00;;;;;;;25.08;53.99;100916.34;4513207;28;20044;-63
2023/06/25 09:25:00;;;;;;;23.42;13.55;;;;;;;25.03;54.19;100907.19;4515379;28;20608;-63
2023/06/25 09:27:11;;;;;;;22.33;12.80;;;;;;;25.03;53.83;100901.41;4513284;28;20046;-63
2023/06/25 09:29:22;;;;;;;21.70;12.85;;;;;;;24.97;54.46;100886.47;4512285;28;20100;-62
2023/06/25 09:31:33;;;;;;;21.83;13.23;;;;;;;25.12;54.00;100919.28;4513843;28;20057;-62
2023/06/25 09:33:51;;;;;;;22.75;13.10;;;;;;;25.13;54.05;100905.69;4512403;28;20120;-63
2023/06/25 09:36:03;;;;;;;20.42;12.23;;;;;;;25.19;54.14;100909.91;4510948;28;20108;-60
2023/06/25 09:38:13;;;;;;;21.50;12.77;;;;;;;25.19;54.01;100898.34;4512287;28;21023;-59
2023/06/25 09:40:24;;;;;;;20.38;11.85;;;;;;;25.22;53.94;100906.22;4511509;28;20022;-61
2023/06/25 09:42:35;;;;;;;22.05;12.27;;;;;;;25.11;54.04;100887.91;4517211;28;20052;-61
2023/06/25 09:44:50;;;;;;;21.00;12.48;;;;;;;25.20;53.98;100900.03;4510157;28;20630;-61
2023/06/25 09:47:05;;;;;;;21.40;12.10;;;;;;;25.18;53.88;100896.69;4511274;28;20052;-60
2023/06/25 09:49:19;;;;;;;17.30;10.75;;;;;;;25.16;53.94;100902.84;4512619;28;20038;-60
2023/06/25 09:51:37;;;;;;;16.90;11.00;;;;;;;25.08;53.92;100893.22;4517890;28;20608;-60
2023/06/25 09:53:52;;;;;;;16.90;9.77;;;;;;;25.09;53.99;100891.19;4512126;28;20038;-60
2023/06/25 09:56:06;;;;;;;18.90;10.48;;;;;;;25.06;54.33;100897.75;4512987;28;20927;-60
2023/06/25 09:58:18;;;;;;;17.35;10.80;;;;;;;25.02;54.26;100888.22;4513764;28;20604;-59
2023/06/25 10:00:28;;;;;;;15.70;9.85;;;;;;;24.90;54.22;100869.06;4513359;28;20073;-60
2023/06/25 10:02:39;;;;;;;14.50;9.13;;;;;;;24.99;54.04;100892.69;4510717;28;20574;-60
2023/06/25 10:04:50;;;;;;;16.42;9.90;;;;;;;24.98;54.50;100891.03;4512539;28;20046;-60
2023/06/25 10:07:04;;;;;;;16.20;9.88;;;;;;;24.96;54.25;100878.19;4513586;28;20418;-60
2023/06/25 10:09:14;;;;;;;17.58;10.23;;;;;;;24.94;54.44;100880.66;4514055;28;20037;-59